createdAt,value
2023-03-17T00:00:30.329Z,8.00
2023-03-17T00:10:34.436Z,6.43
2023-03-17T00:20:37.378Z,7.53
2023-03-17T00:30:41.353Z,8.80
2023-03-17T00:50:51.622Z,5.72
2023-03-17T01:00:55.140Z,8.50
2023-03-17T01:11:00.303Z,7.53
2023-03-17T01:21:03.349Z,8.98
2023-03-17T01:31:07.489Z,6.80
2023-03-17T01:41:10.432Z,6.13
2023-03-17T01:51:19.116Z,9.07
2023-03-17T02:01:27.500Z,8.38
2023-03-17T02:11:31.993Z,8.70
2023-03-17T02:21:42.565Z,9.95
2023-03-17T02:31:45.733Z,5.50
2023-03-17T02:41:49.754Z,6.68
2023-03-17T02:51:53.220Z,6.85
2023-03-17T03:01:57.505Z,7.72
2023-03-17T03:12:01.430Z,4.75
2023-03-17T03:22:05.409Z,6.13
2023-03-17T03:32:08.609Z,10.98
2023-03-17T03:42:12.879Z,6.03
2023-03-17T03:52:15.589Z,4.75
2023-03-17T04:02:19.651Z,5.35
2023-03-17T04:12:22.601Z,5.13
2023-03-17T04:22:27.104Z,6.78
2023-03-17T04:32:29.771Z,8.02
2023-03-17T04:42:33.788Z,5.43
2023-03-17T04:52:37.053Z,8.15
2023-03-17T05:02:41.170Z,6.50
2023-03-17T05:12:45.161Z,7.00
2023-03-17T05:22:49.209Z,6.13
2023-03-17T05:32:52.970Z,7.15
2023-03-17T05:42:56.956Z,5.25
2023-03-17T05:52:59.650Z,5.97
2023-03-17T06:03:03.803Z,5.35
2023-03-17T06:13:06.446Z,5.00
2023-03-17T06:23:10.420Z,3.90
2023-03-17T06:33:13.370Z,4.40
2023-03-17T06:43:19.438Z,6.05
2023-03-17T06:53:22.379Z,5.18
2023-03-17T07:03:26.536Z,5.93
2023-03-17T07:13:29.150Z,6.07
2023-03-17T07:23:33.111Z,4.97
2023-03-17T07:33:35.766Z,4.07
2023-03-17T07:43:39.919Z,4.55
2023-03-17T07:53:42.901Z,4.35
2023-03-17T08:03:47.928Z,5.72
2023-03-17T08:13:50.889Z,4.32
2023-03-17T08:23:55.332Z,4.13
2023-03-17T08:33:58.443Z,5.05
2023-03-17T08:44:02.420Z,4.18
2023-03-17T08:54:05.974Z,4.57
2023-03-17T09:04:10.993Z,6.22
2023-03-17T09:14:13.658Z,3.90
2023-03-17T09:24:18.251Z,3.67
2023-03-17T09:34:20.873Z,4.80
2023-03-17T09:44:34.698Z,4.20
2023-03-17T09:54:38.048Z,4.70
2023-03-17T10:04:43.854Z,4.57
2023-03-17T10:14:56.272Z,7.07
2023-03-17T10:25:07.135Z,5.40
2023-03-17T10:35:12.474Z,10.77
2023-03-17T10:45:24.980Z,5.40
2023-03-17T10:55:30.652Z,10.82
2023-03-17T11:05:34.734Z,6.28
2023-03-17T11:15:42.148Z,5.82
2023-03-17T11:25:53.624Z,7.68
2023-03-17T11:36:01.615Z,5.47
2023-03-17T11:46:10.804Z,6.38
2023-03-17T11:56:18.325Z,6.18
2023-03-17T12:06:29.972Z,6.72
2023-03-17T12:16:37.280Z,7.30
2023-03-17T12:26:48.756Z,8.10
2023-03-17T12:36:51.515Z,7.03
2023-03-17T12:47:15.911Z,9.60
2023-03-17T12:57:21.264Z,6.38
2023-03-17T13:07:27.837Z,8.48
2023-03-17T13:17:34.765Z,9.68
2023-03-17T13:27:46.440Z,10.88
2023-03-17T13:38:23.474Z,7.80
2023-03-17T13:48:33.883Z,7.43
2023-03-17T13:58:52.402Z,6.18
2023-03-17T14:09:01.484Z,7.77
2023-03-17T14:19:13.069Z,7.95
2023-03-17T14:29:19.569Z,10.10
2023-03-17T14:39:25.213Z,8.65
2023-03-17T14:49:29.385Z,11.13
2023-03-17T14:59:35.464Z,10.38
2023-03-17T15:09:41.104Z,9.60
2023-03-17T15:19:46.016Z,8.82
2023-03-17T15:41:11.908Z,8.45
2023-03-17T15:51:14.822Z,9.35
2023-03-17T16:01:19.306Z,13.75
2023-03-17T16:11:28.010Z,15.98
2023-03-17T16:21:33.233Z,10.70
2023-03-17T16:31:36.086Z,13.27
2023-03-17T16:41:40.236Z,8.77
2023-03-17T16:51:43.346Z,9.10
2023-03-17T17:01:47.570Z,8.30
2023-03-17T17:11:52.048Z,10.00
2023-03-17T17:21:56.579Z,9.55
2023-03-17T17:31:59.576Z,10.15
2023-03-17T17:42:03.680Z,10.70
2023-03-17T17:52:06.864Z,16.13
2023-03-17T18:02:11.206Z,11.05
2023-03-17T18:12:13.916Z,7.55
2023-03-17T18:22:17.901Z,13.20
2023-03-17T18:32:20.547Z,11.55
2023-03-17T18:42:25.136Z,10.05
2023-03-17T18:52:32.829Z,9.70
2023-03-17T19:02:37.409Z,8.10
2023-03-17T19:12:40.439Z,8.50
2023-03-17T19:22:44.655Z,13.70
2023-03-17T19:32:47.336Z,9.13
2023-03-17T19:42:51.352Z,16.88
2023-03-17T19:52:54.688Z,24.10
2023-03-17T20:02:58.648Z,20.73
2023-03-17T20:13:01.612Z,14.35
2023-03-17T20:23:05.727Z,17.27
2023-03-17T20:33:10.856Z,16.17
2023-03-17T20:43:16.875Z,13.60
2023-03-17T20:53:19.578Z,18.23
2023-03-17T21:03:23.614Z,28.30
2023-03-17T21:13:26.294Z,30.13
2023-03-17T21:23:30.345Z,21.00
2023-03-17T21:33:33.465Z,21.15
2023-03-17T21:43:38.336Z,25.05
2023-03-17T21:53:41.031Z,18.20
2023-03-17T22:03:45.499Z,15.07
2023-03-17T22:13:48.325Z,15.30
2023-03-17T22:23:52.580Z,12.18
2023-03-17T22:33:58.504Z,12.10
2023-03-17T22:44:02.521Z,11.35
2023-03-17T22:54:05.340Z,8.75
2023-03-17T23:04:09.644Z,16.17
2023-03-17T23:14:13.050Z,12.05
2023-03-17T23:24:17.206Z,7.28
2023-03-17T23:34:19.829Z,11.77
2023-03-17T23:44:24.403Z,6.47
2023-03-17T23:54:27.825Z,8.43
